Devils Lake, North Dakota
Current Conditions -  °F | °C
As of 2:35 AM on Friday 28 Nov 2014 (Local Time) from KDVL Reporting Station
Overcast Overcast  
Wind Chill: -6°   Ceiling: 4100
Heat Index:   Visibility: 10mi
Dew Point: -2°   Wind: 12mph
Humidity: 62%   Direction: 110°ESE
Pressure: 29.94"   Gusts: NA
Location:  48.11°N, 98.86°W
Report Text: KDVL 280835Z AUTO 11010KT 10SM OVC041 M13/M19 A2994 RMK AO1
Loading
Personal Weather Stations






























Interactive Weather Map New forecast layout! Learn more

10-Day Weather Forecast

Advertisements
Track Severe Weather on mobile